TimeAKDT,TemperatureF,Dew PointF,Humidity,Sea Level PressureIn,VisibilityMPH,Wind Direction,Wind SpeedMPH,Gust SpeedMPH,PrecipitationIn,Events,Conditions,WindDirDegrees,DateUTC
12:16 AM,46.4,44.6,93,30.27,8.0,East,5.8,-,N/A,,Overcast,100,2012-10-06 08:16:00
12:36 AM,46.4,44.6,93,30.28,5.0,SE,4.6,-,N/A,,Overcast,140,2012-10-06 08:36:00
12:56 AM,46.4,44.6,93,30.28,7.0,Calm,Calm,-,N/A,,Overcast,0,2012-10-06 08:56:00
1:36 AM,46.4,44.6,93,30.26,5.0,East,5.8,-,N/A,,Overcast,90,2012-10-06 09:36:00
1:56 AM,46.4,44.6,93,30.27,5.0,Calm,Calm,-,N/A,,Overcast,0,2012-10-06 09:56:00
2:16 AM,46.4,44.6,93,30.26,10.0,West,4.6,-,N/A,,Overcast,270,2012-10-06 10:16:00
2:36 AM,46.4,42.8,87,30.26,7.0,Calm,Calm,-,N/A,,Mostly Cloudy,0,2012-10-06 10:36:00
2:56 AM,46.4,44.6,93,30.26,5.0,Calm,Calm,-,N/A,,Mostly Cloudy,0,2012-10-06 10:56:00
3:16 AM,46.4,44.6,93,30.24,7.0,Calm,Calm,-,N/A,,Overcast,0,2012-10-06 11:16:00
3:36 AM,44.6,44.6,100,30.24,10.0,SSW,3.5,-,N/A,,Overcast,200,2012-10-06 11:36:00
3:56 AM,44.6,41.0,87,30.23,7.0,Calm,Calm,-,N/A,,Overcast,0,2012-10-06 11:56:00
4:16 AM,44.6,42.8,93,30.22,7.0,ESE,5.8,-,N/A,,Overcast,110,2012-10-06 12:16:00
4:36 AM,44.6,42.8,93,30.20,8.0,SE,3.5,-,N/A,,Overcast,130,2012-10-06 12:36:00
4:56 AM,44.6,41.0,87,30.21,7.0,Calm,Calm,-,N/A,,Overcast,0,2012-10-06 12:56:00
5:16 AM,44.6,41.0,87,30.21,5.0,Calm,Calm,-,N/A,,Overcast,0,2012-10-06 13:16:00
5:36 AM,44.6,42.8,93,30.21,4.0,South,3.5,-,N/A,,Overcast,170,2012-10-06 13:36:00
5:56 AM,44.6,42.8,93,30.21,5.0,Calm,Calm,-,N/A,,Overcast,0,2012-10-06 13:56:00
6:16 AM,44.6,39.2,81,30.22,5.0,West,3.5,-,N/A,,Overcast,260,2012-10-06 14:16:00
6:36 AM,42.8,39.2,87,30.24,5.0,East,4.6,-,N/A,,Overcast,100,2012-10-06 14:36:00
6:56 AM,44.6,41.0,87,30.26,4.0,Calm,Calm,-,N/A,,Overcast,0,2012-10-06 14:56:00
7:16 AM,42.8,39.2,87,30.26,4.0,ENE,4.6,-,N/A,,Overcast,70,2012-10-06 15:16:00
7:36 AM,42.8,39.2,87,30.26,4.0,Calm,Calm,-,N/A,,Overcast,0,2012-10-06 15:36:00
7:56 AM,42.8,41.0,93,30.26,5.0,NE,3.5,-,N/A,,Overcast,40,2012-10-06 15:56:00
8:16 AM,42.8,39.2,87,30.26,5.0,East,6.9,-,N/A,,Overcast,100,2012-10-06 16:16:00
8:36 AM,42.8,39.2,87,30.26,5.0,Calm,Calm,-,N/A,,Overcast,0,2012-10-06 16:36:00
8:56 AM,42.8,39.2,87,30.26,6.0,East,4.6,-,N/A,,Overcast,90,2012-10-06 16:56:00
9:16 AM,42.8,41.0,93,30.26,6.0,East,3.5,-,N/A,,Overcast,80,2012-10-06 17:16:00
9:36 AM,44.6,41.0,87,30.26,6.0,Calm,Calm,-,N/A,,Overcast,0,2012-10-06 17:36:00
9:56 AM,44.6,42.8,93,30.25,9.0,Calm,Calm,-,N/A,,Overcast,0,2012-10-06 17:56:00
10:16 AM,44.6,42.8,93,30.26,9.0,Calm,Calm,-,N/A,,Overcast,0,2012-10-06 18:16:00
10:36 AM,44.6,42.8,93,30.27,9.0,WSW,5.8,-,N/A,,Overcast,250,2012-10-06 18:36:00
10:56 AM,44.6,39.2,81,30.28,8.0,West,4.6,-,N/A,,Overcast,260,2012-10-06 18:56:00
11:16 AM,44.6,41.0,87,30.28,8.0,WSW,3.5,-,N/A,,Overcast,240,2012-10-06 19:16:00
11:36 AM,44.6,39.2,81,30.29,8.0,Calm,Calm,-,N/A,,Overcast,0,2012-10-06 19:36:00
11:56 AM,44.6,39.2,81,30.29,9.0,Calm,Calm,-,N/A,,Overcast,0,2012-10-06 19:56:00
12:16 PM,44.6,39.2,81,30.30,9.0,Calm,Calm,-,N/A,,Overcast,0,2012-10-06 20:16:00
12:36 PM,44.6,42.8,93,30.31,9.0,East,3.5,-,N/A,,Overcast,100,2012-10-06 20:36:00
12:56 PM,44.6,42.8,93,30.31,9.0,Calm,Calm,-,N/A,,Overcast,0,2012-10-06 20:56:00
1:16 PM,44.6,42.8,93,30.32,9.0,Calm,Calm,-,N/A,,Overcast,0,2012-10-06 21:16:00
1:36 PM,44.6,41.0,87,30.32,9.0,Calm,Calm,-,N/A,,Overcast,0,2012-10-06 21:36:00
1:56 PM,44.6,41.0,87,30.32,5.0,Calm,Calm,-,N/A,,Overcast,0,2012-10-06 21:56:00
2:16 PM,44.6,41.0,87,30.32,3.0,Calm,Calm,-,N/A,,Overcast,0,2012-10-06 22:16:00
2:36 PM,44.6,41.0,87,30.33,3.0,Calm,Calm,-,N/A,,Overcast,0,2012-10-06 22:36:00
2:56 PM,44.6,41.0,87,30.33,4.0,Calm,Calm,-,N/A,,Overcast,0,2012-10-06 22:56:00
3:16 PM,44.6,42.8,93,30.34,4.0,Calm,Calm,-,N/A,,Overcast,0,2012-10-06 23:16:00
3:36 PM,44.6,42.8,93,30.34,4.0,Calm,Calm,-,N/A,,Overcast,0,2012-10-06 23:36:00
3:56 PM,44.6,41.0,87,30.34,3.0,Calm,Calm,-,N/A,,Overcast,0,2012-10-06 23:56:00
4:16 PM,44.6,41.0,87,30.34,3.0,Calm,Calm,-,N/A,,Overcast,0,2012-10-07 00:16:00
4:36 PM,44.6,42.8,93,30.33,3.0,Calm,Calm,-,N/A,,Overcast,0,2012-10-07 00:36:00
4:56 PM,44.6,42.8,93,30.33,2.0,Calm,Calm,-,N/A,,Overcast,0,2012-10-07 00:56:00
5:16 PM,44.6,42.8,93,30.34,1.0,Calm,Calm,-,N/A,,Overcast,0,2012-10-07 01:16:00
5:36 PM,44.6,42.8,93,30.34,1.0,Calm,Calm,-,N/A,,Overcast,0,2012-10-07 01:36:00
5:56 PM,44.6,41.0,87,30.35,2.0,Calm,Calm,-,N/A,,Overcast,0,2012-10-07 01:56:00
6:16 PM,44.6,41.0,87,30.35,2.0,Calm,Calm,-,N/A,,Overcast,0,2012-10-07 02:16:00
6:36 PM,44.6,41.0,87,30.35,2.0,Calm,Calm,-,N/A,,Overcast,0,2012-10-07 02:36:00
6:56 PM,44.6,41.0,87,30.35,1.0,Calm,Calm,-,N/A,,Overcast,0,2012-10-07 02:56:00
7:16 PM,44.6,41.0,87,30.36,1.0,Calm,Calm,-,N/A,,Overcast,0,2012-10-07 03:16:00
7:36 PM,44.6,42.8,93,30.36,1.0,Calm,Calm,-,N/A,,Overcast,0,2012-10-07 03:36:00
7:56 PM,42.8,41.0,93,30.36,1.0,Calm,Calm,-,N/A,,Overcast,0,2012-10-07 03:56:00
8:16 PM,44.6,42.8,93,30.36,1.0,Calm,Calm,-,N/A,,Overcast,0,2012-10-07 04:16:00
8:36 PM,42.8,41.0,93,30.36,1.0,Calm,Calm,-,N/A,,Overcast,0,2012-10-07 04:36:00
8:56 PM,42.8,41.0,93,30.37,1.0,Calm,Calm,-,N/A,,Overcast,0,2012-10-07 04:56:00
9:16 PM,42.8,42.8,100,30.37,1.0,East,3.5,-,N/A,,Overcast,90,2012-10-07 05:16:00
9:36 PM,42.8,41.0,93,30.38,1.0,Calm,Calm,-,N/A,,Overcast,0,2012-10-07 05:36:00
9:56 PM,42.8,42.8,100,30.39,1.0,Calm,Calm,-,N/A,,Overcast,0,2012-10-07 05:56:00
10:16 PM,42.8,39.2,87,30.37,10.0,East,3.5,-,N/A,,Overcast,100,2012-10-07 06:16:00
10:36 PM,42.8,39.2,87,30.38,10.0,Calm,Calm,-,N/A,,Overcast,0,2012-10-07 06:36:00
10:56 PM,42.8,41.0,93,30.38,8.0,East,4.6,-,N/A,,Mostly Cloudy,90,2012-10-07 06:56:00
11:16 PM,42.8,39.2,87,30.38,10.0,Calm,Calm,-,N/A,,Overcast,0,2012-10-07 07:16:00
11:36 PM,42.8,42.8,100,30.39,10.0,Calm,Calm,-,N/A,,Overcast,0,2012-10-07 07:36:00
11:56 PM,42.8,39.2,87,30.39,10.0,Calm,Calm,-,N/A,,Overcast,0,2012-10-07 07:56:00